createdAt,value
2023-04-11T07:28:01.122Z,85.46
2023-04-11T07:29:52.713Z,85.40
2023-04-11T07:31:45.209Z,83.49
2023-04-11T07:32:47.110Z,83.80
2023-04-11T07:33:48.662Z,83.86
2023-04-11T07:34:50.747Z,85.22
2023-04-11T07:35:52.143Z,85.50
2023-04-11T07:37:58.105Z,83.50
2023-04-11T07:39:00.066Z,83.75
2023-04-11T07:40:01.755Z,83.20
2023-04-11T07:41:04.244Z,83.29
2023-04-11T07:42:05.970Z,81.45
2023-04-11T07:43:07.354Z,81.30
2023-04-11T07:46:50.418Z,81.87
2023-04-11T07:47:51.870Z,81.81
2023-04-11T07:48:53.297Z,81.96
2023-04-11T07:49:54.677Z,80.99
2023-04-11T07:50:56.220Z,80.83
2023-04-11T07:51:57.691Z,79.73
2023-04-11T07:52:59.277Z,81.20
2023-04-11T07:54:01.009Z,80.07
2023-04-11T07:55:03.028Z,78.59
2023-04-11T07:56:05.017Z,78.72
2023-04-11T07:57:06.406Z,77.03
2023-04-11T07:58:08.267Z,76.92
2023-04-11T07:59:09.915Z,76.55
2023-04-11T08:00:19.631Z,76.18
2023-04-11T08:01:23.082Z,75.75
2023-04-11T08:02:24.644Z,74.22
2023-04-11T08:03:27.078Z,75.83
2023-04-11T08:04:36.206Z,76.71
2023-04-11T08:05:37.909Z,76.74
2023-04-11T08:06:39.417Z,74.58
2023-04-11T08:07:41.724Z,75.57
2023-04-11T08:08:43.312Z,76.39
2023-04-11T08:09:45.029Z,77.33
2023-04-11T08:10:46.453Z,76.72
2023-04-11T08:11:47.832Z,77.07
2023-04-11T08:12:49.773Z,77.19
2023-04-11T08:13:51.724Z,76.34
2023-04-11T08:14:53.092Z,77.24
2023-04-11T08:15:54.496Z,76.78
2023-04-11T08:16:55.949Z,73.68
2023-04-11T08:17:57.631Z,74.51
2023-04-11T08:18:59.105Z,75.96
2023-04-11T08:20:02.264Z,75.17
2023-04-11T08:21:04.044Z,75.60
2023-04-11T08:22:05.473Z,75.51
2023-04-11T08:23:08.538Z,75.15
2023-04-11T08:24:09.969Z,74.43
2023-04-11T08:25:12.585Z,73.88
2023-04-11T08:26:14.032Z,74.64
2023-04-11T08:27:15.600Z,74.90
2023-04-11T08:28:16.938Z,74.75
2023-04-11T08:29:18.499Z,74.12
2023-04-11T08:30:20.476Z,73.41
2023-04-11T08:31:23.284Z,72.05
2023-04-11T08:32:25.256Z,71.79
2023-04-11T08:33:27.437Z,72.65
2023-04-11T08:34:28.855Z,72.23
2023-04-11T08:35:30.280Z,72.22
2023-04-11T08:36:32.090Z,70.74
2023-04-11T08:37:33.750Z,70.67
2023-04-11T08:38:36.550Z,70.03
2023-04-11T08:39:38.113Z,71.28
2023-04-11T08:40:39.888Z,71.18
2023-04-11T08:41:42.160Z,71.50
2023-04-11T08:42:44.625Z,71.14
2023-04-11T08:43:48.044Z,71.25
2023-04-11T08:44:55.246Z,70.28
2023-04-11T08:45:57.064Z,70.78
2023-04-11T08:46:58.691Z,69.77
2023-04-11T08:48:00.166Z,69.65
2023-04-11T08:49:01.720Z,71.64
2023-04-11T08:50:04.273Z,70.67
2023-04-11T08:51:06.378Z,70.46
2023-04-11T08:52:08.044Z,70.39
2023-04-11T08:53:09.708Z,70.64
2023-04-11T08:54:12.090Z,71.78
2023-04-11T08:55:13.468Z,71.91
2023-04-11T08:56:16.960Z,70.84
2023-04-11T08:57:26.208Z,70.13
2023-04-11T08:58:27.812Z,69.83
2023-04-11T08:59:30.508Z,68.88
2023-04-11T09:00:32.624Z,69.07
2023-04-11T09:01:37.103Z,69.53
2023-04-11T09:02:57.426Z,68.66
2023-04-11T09:04:01.027Z,68.26
2023-04-11T09:05:02.443Z,68.59
2023-04-11T09:06:10.520Z,68.26
2023-04-11T09:07:12.609Z,69.17
2023-04-11T09:08:15.924Z,69.09
2023-04-11T09:09:30.018Z,68.82
2023-04-11T09:10:35.758Z,70.52
2023-04-11T09:11:51.985Z,69.34
2023-04-11T09:12:54.910Z,67.89
2023-04-11T09:14:09.977Z,67.78
2023-04-11T09:15:41.086Z,68.20
2023-04-11T09:17:04.254Z,68.48
2023-04-11T09:18:05.871Z,68.43
2023-04-11T09:19:23.386Z,67.12
2023-04-11T09:20:34.852Z,67.17
2023-04-11T09:21:48.893Z,67.18
2023-04-11T09:22:50.536Z,66.92
2023-04-11T09:23:52.530Z,67.47
2023-04-11T09:25:03.721Z,66.00
2023-04-11T09:26:09.322Z,66.00
2023-04-11T09:27:16.439Z,65.92
2023-04-11T09:28:17.960Z,67.00
2023-04-11T09:29:42.749Z,67.32
2023-04-11T09:30:55.270Z,67.85
2023-04-11T09:31:57.099Z,66.72
2023-04-11T09:32:58.686Z,67.41
2023-04-11T09:34:00.193Z,66.26
2023-04-11T09:35:24.042Z,65.48
2023-04-11T09:36:29.104Z,65.28
2023-04-11T09:37:44.983Z,66.50
2023-04-11T09:38:46.488Z,66.13
2023-04-11T09:39:58.180Z,65.97
2023-04-11T09:41:04.202Z,66.32
2023-04-11T09:42:27.800Z,65.68
2023-04-11T09:43:55.515Z,65.71
2023-04-11T09:44:57.314Z,66.28
2023-04-11T09:46:09.700Z,66.36
2023-04-11T09:47:11.132Z,66.21
2023-04-11T09:48:13.426Z,67.19
2023-04-11T09:49:15.014Z,67.00
2023-04-11T09:50:17.114Z,67.08
2023-04-11T09:51:34.413Z,66.96
2023-04-11T09:52:45.586Z,66.43
2023-04-11T09:53:47.111Z,65.26
2023-04-11T09:54:50.688Z,64.86
2023-04-11T09:55:52.206Z,64.00
2023-04-11T09:56:54.153Z,65.37
2023-04-11T09:57:55.570Z,67.38
2023-04-11T09:58:57.695Z,68.75
2023-04-11T10:00:14.471Z,68.05
2023-04-11T10:01:19.009Z,69.93
2023-04-11T10:02:20.785Z,72.25
2023-04-11T10:03:24.088Z,73.38
2023-04-11T10:04:28.002Z,74.74
2023-04-11T10:05:30.403Z,75.50
2023-04-11T10:06:38.939Z,75.73
2023-04-11T10:07:48.343Z,76.99
2023-04-11T10:08:51.344Z,76.83
2023-04-11T10:09:52.991Z,75.31
2023-04-11T10:10:56.758Z,76.77
2023-04-11T10:11:58.363Z,76.45
2023-04-11T10:12:59.889Z,75.21
2023-04-11T10:14:01.335Z,75.77
2023-04-11T10:15:09.211Z,73.67
2023-04-11T10:16:18.766Z,71.64
2023-04-11T10:17:23.669Z,71.93
2023-04-11T10:18:25.871Z,69.64
2023-04-11T10:19:27.436Z,69.52
2023-04-11T10:20:31.507Z,70.77
2023-04-11T10:21:32.887Z,71.27
2023-04-11T10:22:43.942Z,69.61
2023-04-11T10:24:07.484Z,69.45
2023-04-11T10:25:16.628Z,67.39
2023-04-11T10:26:18.146Z,66.47
2023-04-11T10:27:47.795Z,65.89
2023-04-11T10:28:49.205Z,64.92
2023-04-11T10:29:52.896Z,63.07
2023-04-11T10:31:04.818Z,62.25
2023-04-11T10:32:19.387Z,62.92
2023-04-11T10:33:21.555Z,63.10
2023-04-11T10:34:23.014Z,61.78
2023-04-11T10:35:24.917Z,61.90
2023-04-11T10:36:26.982Z,61.19
2023-04-11T10:37:34.949Z,62.37
2023-04-11T10:38:43.592Z,61.74
2023-04-11T10:39:53.974Z,61.44
2023-04-11T10:41:20.902Z,60.38
2023-04-11T10:42:31.869Z,57.09
2023-04-11T10:43:33.589Z,57.01
2023-04-11T10:44:35.054Z,57.92
2023-04-11T10:45:40.028Z,58.36
2023-04-11T10:46:46.638Z,58.70
2023-04-11T10:47:57.235Z,57.05
2023-04-11T10:49:03.576Z,57.02
2023-04-11T10:50:31.389Z,56.13
2023-04-11T10:51:34.089Z,57.25
2023-04-11T10:52:38.589Z,57.44
2023-04-11T10:53:40.307Z,58.20
2023-04-11T10:54:41.723Z,58.69
2023-04-11T10:55:48.780Z,57.36
2023-04-11T10:56:56.810Z,57.89
2023-04-11T10:58:09.340Z,58.75
2023-04-11T10:59:49.218Z,58.19
2023-04-11T11:00:53.752Z,58.92
2023-04-11T11:01:56.149Z,58.78
2023-04-11T11:02:58.170Z,58.17
2023-04-11T11:04:00.009Z,57.60
2023-04-11T11:05:02.126Z,57.97
2023-04-11T11:06:06.304Z,56.71
2023-04-11T11:07:13.122Z,56.97
2023-04-11T11:08:14.543Z,56.37
2023-04-11T11:09:28.603Z,56.37
2023-04-11T11:11:03.117Z,55.02
2023-04-11T11:12:11.522Z,55.28
2023-04-11T11:13:15.491Z,54.98
2023-04-11T11:14:29.239Z,55.13
2023-04-11T11:15:38.191Z,54.81
2023-04-11T11:16:40.872Z,54.58
2023-04-11T11:17:43.020Z,55.63
2023-04-11T11:18:46.817Z,55.33
2023-04-11T11:19:48.691Z,55.21
2023-04-11T11:20:55.015Z,54.93
2023-04-11T11:21:56.867Z,55.68
2023-04-11T11:23:06.087Z,55.05
2023-04-11T11:24:07.431Z,56.12
2023-04-11T11:25:09.390Z,56.46
2023-04-11T11:26:10.867Z,56.97
2023-04-11T11:27:23.112Z,57.79
2023-04-11T11:28:25.274Z,58.01
2023-04-11T11:29:37.850Z,56.93
2023-04-11T11:30:53.982Z,57.07
2023-04-11T11:31:57.762Z,56.45
2023-04-11T11:32:59.360Z,56.67
2023-04-11T11:34:18.434Z,56.75
2023-04-11T11:35:23.733Z,55.26
2023-04-11T11:36:26.372Z,55.95
2023-04-11T11:37:27.886Z,55.71
2023-04-11T11:38:30.546Z,55.67
2023-04-11T11:39:32.382Z,55.27
2023-04-11T11:40:33.905Z,53.92
2023-04-11T11:41:35.395Z,55.04
2023-04-11T11:42:36.971Z,56.24
2023-04-11T11:43:38.925Z,56.28
2023-04-11T11:44:40.434Z,56.40
2023-04-11T11:45:42.595Z,55.53
2023-04-11T11:47:12.302Z,54.73
2023-04-11T11:48:24.185Z,54.81
2023-04-11T11:49:25.665Z,53.33
2023-04-11T11:50:31.562Z,54.42
2023-04-11T11:51:43.008Z,55.47
2023-04-11T11:52:44.670Z,54.07
2023-04-11T11:54:04.688Z,54.71
2023-04-11T11:55:11.211Z,55.04
2023-04-11T11:56:14.211Z,54.69
2023-04-11T11:57:24.835Z,55.70
2023-04-11T11:58:27.411Z,56.42
2023-04-11T11:59:28.971Z,55.17
2023-04-11T12:00:34.693Z,54.66
2023-04-11T12:01:37.444Z,54.49
2023-04-11T12:02:40.786Z,55.10
2023-04-11T12:03:42.634Z,55.88
2023-04-11T12:04:44.236Z,56.04
2023-04-11T12:05:47.653Z,54.90
2023-04-11T12:06:49.100Z,55.65
2023-04-11T12:07:58.659Z,56.23
2023-04-11T12:09:18.010Z,56.98
2023-04-11T12:10:19.389Z,56.90
2023-04-11T12:11:21.269Z,56.12
2023-04-11T12:12:22.614Z,56.47
2023-04-11T12:13:27.797Z,55.90
2023-04-11T12:14:29.546Z,55.74
2023-04-11T12:15:35.692Z,54.60
2023-04-11T12:16:37.997Z,53.48
2023-04-11T12:17:40.313Z,54.08
2023-04-11T12:18:42.543Z,53.73
2023-04-11T12:19:43.936Z,53.44
2023-04-11T12:20:45.378Z,52.76
2023-04-11T12:21:46.738Z,53.97
2023-04-11T12:22:48.112Z,53.44
2023-04-11T12:23:49.464Z,53.39
2023-04-11T12:25:13.963Z,53.22
2023-04-11T12:26:15.701Z,53.03
2023-04-11T12:27:17.110Z,52.81
2023-04-11T12:28:18.867Z,52.71
2023-04-11T12:29:20.575Z,53.31
2023-04-11T12:30:21.988Z,52.98
2023-04-11T12:31:25.113Z,51.43
2023-04-11T12:32:27.534Z,51.66
2023-04-11T12:33:29.009Z,51.11
2023-04-11T12:34:30.550Z,50.44
2023-04-11T12:35:32.828Z,51.53
2023-04-11T12:36:36.673Z,51.52
2023-04-11T12:37:39.002Z,51.40
2023-04-11T12:38:41.170Z,51.03
2023-04-11T12:39:42.490Z,50.57
2023-04-11T12:40:43.987Z,50.43
2023-04-11T12:41:45.382Z,51.20
2023-04-11T12:42:56.458Z,50.03
2023-04-11T12:44:01.930Z,49.68
2023-04-11T12:45:04.247Z,49.73
2023-04-11T12:46:06.332Z,50.58
2023-04-11T12:47:07.712Z,51.17
2023-04-11T12:48:09.217Z,51.41
2023-04-11T12:49:10.633Z,51.05
2023-04-11T12:50:12.227Z,51.46
2023-04-11T12:51:13.666Z,51.29
2023-04-11T12:52:15.526Z,50.74
2023-04-11T12:53:16.926Z,51.29
2023-04-11T12:54:18.323Z,49.98
2023-04-11T12:55:19.768Z,50.26
2023-04-11T12:56:21.157Z,49.68
2023-04-11T12:57:22.679Z,50.04
2023-04-11T12:58:24.057Z,49.69
2023-04-11T12:59:26.518Z,50.10
2023-04-11T13:00:28.558Z,50.56
2023-04-11T13:01:29.986Z,50.17
2023-04-11T13:02:38.257Z,49.21
2023-04-11T13:03:44.196Z,49.63
2023-04-11T13:04:46.406Z,49.68
2023-04-11T13:05:47.845Z,48.46
2023-04-11T13:06:49.575Z,49.18
2023-04-11T13:07:52.060Z,49.34
2023-04-11T13:08:53.517Z,49.69
2023-04-11T13:09:55.082Z,50.04
2023-04-11T13:10:56.417Z,50.27
2023-04-11T13:11:58.881Z,50.19
2023-04-11T13:13:08.474Z,49.67
2023-04-11T13:14:18.862Z,49.17
2023-04-11T13:15:20.387Z,48.88
2023-04-11T13:16:21.860Z,49.42
2023-04-11T13:17:23.279Z,48.70
2023-04-11T13:18:24.902Z,48.54
2023-04-11T13:19:26.461Z,48.51
2023-04-11T13:20:27.853Z,48.27
2023-04-11T13:21:29.217Z,48.96
2023-04-11T13:22:30.859Z,49.00
2023-04-11T13:23:32.374Z,49.27
2023-04-11T13:24:33.859Z,49.16
2023-04-11T13:25:35.238Z,48.13
2023-04-11T13:26:36.747Z,47.50
2023-04-11T13:27:39.689Z,47.81
2023-04-11T13:28:41.310Z,47.49
2023-04-11T13:29:42.692Z,48.62
2023-04-11T13:30:44.166Z,48.01
2023-04-11T13:31:45.717Z,47.84
2023-04-11T13:32:47.120Z,47.86
2023-04-11T13:33:48.530Z,47.96
2023-04-11T13:34:50.011Z,48.06
2023-04-11T13:35:51.453Z,48.28
2023-04-11T13:36:52.947Z,48.66
2023-04-11T13:37:54.455Z,48.61
2023-04-11T13:38:57.237Z,47.81
2023-04-11T13:39:59.176Z,46.95
2023-04-11T13:41:00.647Z,47.15
2023-04-11T13:42:02.038Z,46.85
2023-04-11T13:43:03.852Z,47.34
2023-04-11T13:44:05.272Z,47.47
2023-04-11T13:45:07.238Z,47.45
2023-04-11T13:46:08.933Z,47.38
2023-04-11T13:47:10.354Z,48.06
2023-04-11T13:48:11.718Z,47.62
2023-04-11T13:49:13.524Z,47.24
2023-04-11T13:50:14.885Z,46.82
2023-04-11T13:51:16.374Z,46.92
2023-04-11T13:52:17.762Z,46.80
2023-04-11T13:53:19.101Z,46.58
2023-04-11T13:54:20.595Z,47.10
2023-04-11T13:55:23.360Z,46.87
2023-04-11T13:56:25.037Z,45.96
2023-04-11T13:57:28.412Z,46.09
2023-04-11T13:58:30.769Z,45.34
2023-04-11T13:59:32.115Z,46.90
2023-04-11T14:00:36.158Z,47.28
2023-04-11T14:01:37.863Z,46.74
2023-04-11T14:02:40.847Z,46.42
2023-04-11T14:03:43.045Z,46.74
2023-04-11T14:04:44.699Z,45.72
2023-04-11T14:05:46.180Z,45.47
2023-04-11T14:06:47.549Z,46.41
2023-04-11T14:07:49.533Z,45.83
2023-04-11T14:08:51.683Z,45.36
2023-04-11T14:09:53.162Z,45.51
2023-04-11T14:10:55.292Z,47.25
2023-04-11T14:11:56.841Z,46.49
2023-04-11T14:12:58.238Z,45.66
2023-04-11T14:13:59.567Z,45.59
2023-04-11T14:15:01.000Z,45.84
2023-04-11T14:16:08.546Z,45.92
2023-04-11T14:17:11.253Z,46.36
2023-04-11T14:18:12.742Z,46.95
2023-04-11T14:19:14.456Z,46.51
2023-04-11T14:20:15.929Z,45.95
2023-04-11T14:21:17.414Z,45.44
2023-04-11T14:22:18.894Z,45.20
2023-04-11T14:23:20.733Z,44.82
2023-04-11T14:24:22.325Z,45.27
2023-04-11T14:25:23.791Z,46.28
2023-04-11T14:26:25.639Z,45.77
2023-04-11T14:27:27.013Z,46.49
2023-04-11T14:28:28.597Z,46.34
2023-04-11T14:29:31.070Z,46.53
2023-04-11T14:30:32.568Z,45.42
2023-04-11T14:31:34.191Z,46.60
2023-04-11T14:32:35.983Z,46.95
2023-04-11T14:33:37.398Z,47.06
2023-04-11T14:34:38.828Z,46.85
2023-04-11T14:35:40.394Z,46.26
2023-04-11T14:36:41.829Z,46.43
2023-04-11T14:37:44.989Z,47.03
2023-04-11T14:38:46.444Z,47.05
2023-04-11T14:39:47.959Z,46.84
2023-04-11T14:40:49.381Z,45.91
2023-04-11T14:41:50.938Z,45.84
2023-04-11T14:42:52.358Z,45.76
2023-04-11T14:43:53.768Z,46.24
2023-04-11T14:44:55.149Z,46.44
2023-04-11T14:45:57.827Z,46.39
2023-04-11T14:46:59.283Z,46.50
2023-04-11T14:48:00.753Z,47.34
2023-04-11T14:49:02.524Z,47.50
2023-04-11T14:50:04.115Z,48.23
2023-04-11T14:51:05.974Z,48.99
2023-04-11T14:52:07.497Z,49.25
2023-04-11T14:53:09.470Z,49.25
2023-04-11T14:54:10.896Z,48.92
2023-04-11T14:55:12.411Z,48.76
2023-04-11T14:56:13.788Z,49.20
2023-04-11T14:57:15.621Z,48.61
2023-04-11T14:58:17.056Z,49.20
2023-04-11T14:59:18.555Z,49.06
2023-04-11T15:00:21.787Z,48.65
2023-04-11T15:01:23.380Z,48.65
2023-04-11T15:02:24.887Z,48.32
2023-04-11T15:03:26.598Z,47.27
2023-04-11T15:04:28.172Z,48.37
2023-04-11T15:05:29.919Z,48.21
2023-04-11T15:06:32.485Z,47.20
2023-04-11T15:07:33.890Z,47.74
2023-04-11T15:08:35.658Z,47.45
2023-04-11T15:09:36.984Z,46.95
2023-04-11T15:10:38.384Z,46.82
2023-04-11T15:11:39.989Z,46.36
2023-04-11T15:12:41.620Z,46.78
2023-04-11T15:13:43.068Z,46.67
2023-04-11T15:14:44.445Z,46.35
2023-04-11T15:15:45.926Z,46.29
2023-04-11T15:16:47.342Z,45.56
2023-04-11T15:18:09.765Z,45.73
2023-04-11T15:19:11.244Z,45.90
2023-04-11T15:20:14.607Z,45.11
2023-04-11T15:21:16.383Z,46.05
2023-04-11T15:22:17.902Z,45.97
2023-04-11T15:23:20.502Z,47.46
2023-04-11T15:24:22.134Z,47.08
2023-04-11T15:25:23.904Z,46.96
2023-04-11T15:26:25.686Z,47.29
2023-04-11T15:27:27.234Z,46.78
2023-04-11T15:28:36.321Z,46.88
2023-04-11T15:29:37.992Z,46.83
2023-04-11T15:30:47.516Z,46.32
2023-04-11T15:31:49.071Z,46.74
2023-04-11T15:32:50.534Z,46.62
2023-04-11T15:33:53.324Z,46.82
2023-04-11T15:34:55.319Z,46.99
2023-04-11T15:35:58.543Z,46.34
2023-04-11T15:37:01.152Z,46.39
2023-04-11T15:38:02.486Z,45.78
2023-04-11T15:39:05.052Z,46.63
2023-04-11T15:40:07.749Z,47.14
2023-04-11T15:41:09.158Z,47.12
2023-04-11T15:42:10.484Z,47.33
2023-04-11T15:43:11.905Z,46.56
2023-04-11T15:44:13.324Z,46.95
2023-04-11T15:45:14.721Z,46.69
2023-04-11T15:46:16.246Z,46.67
2023-04-11T15:47:18.274Z,46.89
2023-04-11T15:48:19.748Z,47.20
2023-04-11T15:49:21.254Z,46.77
2023-04-11T15:50:22.637Z,47.15
2023-04-11T15:51:24.632Z,47.44
2023-04-11T15:52:26.297Z,47.74
2023-04-11T15:53:27.677Z,48.53
2023-04-11T15:54:31.735Z,48.28
2023-04-11T15:55:33.450Z,47.77
2023-04-11T15:56:34.920Z,47.42
2023-04-11T15:57:36.514Z,46.93
2023-04-11T15:58:37.946Z,47.19
2023-04-11T15:59:41.339Z,47.13
2023-04-11T16:00:43.752Z,47.30
2023-04-11T16:01:46.100Z,48.07
2023-04-11T16:02:48.748Z,48.11
2023-04-11T16:03:51.965Z,48.49
2023-04-11T16:04:55.219Z,48.64
2023-04-11T16:06:00.154Z,48.67
2023-04-11T16:07:02.259Z,49.20
2023-04-11T16:08:04.819Z,48.32
2023-04-11T16:09:06.224Z,47.93
2023-04-11T16:10:08.379Z,48.99
2023-04-11T16:11:09.766Z,48.55
2023-04-11T16:12:11.135Z,48.79
2023-04-11T16:13:12.600Z,49.41
2023-04-11T16:14:14.054Z,49.19
2023-04-11T16:15:15.645Z,49.22
2023-04-11T16:16:17.077Z,49.66
2023-04-11T16:17:20.400Z,49.74
2023-04-11T16:18:21.762Z,50.27
2023-04-11T16:19:24.019Z,50.63
2023-04-11T16:20:25.667Z,51.24
2023-04-11T16:21:27.407Z,51.63
2023-04-11T16:22:28.806Z,51.43
2023-04-11T16:23:30.697Z,51.24
2023-04-11T16:24:32.082Z,51.26
2023-04-11T16:25:33.450Z,51.30
2023-04-11T16:26:35.988Z,50.91
2023-04-11T16:27:37.394Z,50.73
2023-04-11T16:28:38.789Z,50.85
2023-04-11T16:29:41.861Z,51.35
2023-04-11T16:30:43.189Z,51.20
2023-04-11T16:31:44.628Z,51.00
2023-04-11T16:32:46.111Z,51.59
2023-04-11T16:33:47.679Z,51.83
2023-04-11T16:34:50.965Z,52.32
2023-04-11T16:35:52.426Z,51.21
2023-04-11T16:36:53.801Z,51.96
2023-04-11T16:37:55.180Z,51.81
2023-04-11T16:38:56.606Z,52.38
2023-04-11T16:39:58.232Z,52.34
2023-04-11T16:41:03.375Z,52.14
2023-04-11T16:42:05.040Z,53.25
2023-04-11T16:43:06.489Z,53.04
2023-04-11T16:44:13.995Z,52.36
2023-04-11T16:45:15.654Z,52.74
2023-04-11T16:46:17.053Z,52.28
2023-04-11T16:47:20.271Z,52.51
2023-04-11T16:48:21.664Z,52.77
2023-04-11T16:49:23.054Z,53.53
2023-04-11T16:50:25.832Z,53.79
2023-04-11T16:51:27.332Z,54.05
2023-04-11T16:52:29.372Z,53.47
2023-04-11T16:53:30.946Z,53.89
2023-04-11T16:54:32.684Z,54.24
